sensor_id;sensor_type;location;lat;lon;timestamp;P1;durP1;ratioP1;P2;durP2;ratioP2
31390;SDS011;18022;45.492;11.548;2023-11-21T00:01:36;31.83;;;22.42;;
31390;SDS011;18022;45.492;11.548;2023-11-21T00:04:03;32.85;;;22.85;;
31390;SDS011;18022;45.492;11.548;2023-11-21T00:06:28;33.05;;;22.60;;
31390;SDS011;18022;45.492;11.548;2023-11-21T00:08:55;35.50;;;21.88;;
31390;SDS011;18022;45.492;11.548;2023-11-21T00:11:21;35.17;;;22.65;;
31390;SDS011;18022;45.492;11.548;2023-11-21T00:13:47;35.03;;;23.23;;
31390;SDS011;18022;45.492;11.548;2023-11-21T00:16:12;37.22;;;22.88;;
31390;SDS011;18022;45.492;11.548;2023-11-21T00:18:38;32.70;;;21.92;;
31390;SDS011;18022;45.492;11.548;2023-11-21T00:21:04;31.50;;;22.67;;
31390;SDS011;18022;45.492;11.548;2023-11-21T00:23:30;35.55;;;24.15;;
31390;SDS011;18022;45.492;11.548;2023-11-21T00:25:56;35.20;;;23.13;;
31390;SDS011;18022;45.492;11.548;2023-11-21T00:28:22;34.55;;;24.33;;
31390;SDS011;18022;45.492;11.548;2023-11-21T00:30:47;36.70;;;24.10;;
31390;SDS011;18022;45.492;11.548;2023-11-21T00:33:13;34.47;;;23.20;;
31390;SDS011;18022;45.492;11.548;2023-11-21T00:35:39;33.88;;;24.40;;
31390;SDS011;18022;45.492;11.548;2023-11-21T00:38:04;34.20;;;23.60;;
31390;SDS011;18022;45.492;11.548;2023-11-21T00:40:30;36.20;;;23.67;;
31390;SDS011;18022;45.492;11.548;2023-11-21T00:42:56;31.58;;;22.80;;
31390;SDS011;18022;45.492;11.548;2023-11-21T00:45:21;33.05;;;22.90;;
31390;SDS011;18022;45.492;11.548;2023-11-21T00:47:47;30.08;;;20.95;;
31390;SDS011;18022;45.492;11.548;2023-11-21T00:50:13;30.70;;;21.13;;
31390;SDS011;18022;45.492;11.548;2023-11-21T00:52:38;37.40;;;25.08;;
31390;SDS011;18022;45.492;11.548;2023-11-21T00:55:04;35.55;;;24.83;;
31390;SDS011;18022;45.492;11.548;2023-11-21T00:59:58;37.35;;;23.92;;
31390;SDS011;18022;45.492;11.548;2023-11-21T01:02:24;36.45;;;24.17;;
31390;SDS011;18022;45.492;11.548;2023-11-21T01:04:50;33.15;;;23.60;;
31390;SDS011;18022;45.492;11.548;2023-11-21T01:07:16;33.53;;;24.38;;
31390;SDS011;18022;45.492;11.548;2023-11-21T01:09:45;35.25;;;24.42;;
31390;SDS011;18022;45.492;11.548;2023-11-21T01:12:11;37.97;;;24.52;;
31390;SDS011;18022;45.492;11.548;2023-11-21T01:14:37;36.40;;;24.08;;
31390;SDS011;18022;45.492;11.548;2023-11-21T01:17:02;35.88;;;24.05;;
31390;SDS011;18022;45.492;11.548;2023-11-21T01:19:29;36.70;;;24.48;;
31390;SDS011;18022;45.492;11.548;2023-11-21T01:21:55;34.95;;;25.17;;
31390;SDS011;18022;45.492;11.548;2023-11-21T01:24:23;36.92;;;24.85;;
31390;SDS011;18022;45.492;11.548;2023-11-21T01:26:48;36.92;;;24.55;;
31390;SDS011;18022;45.492;11.548;2023-11-21T01:29:14;36.55;;;24.75;;
31390;SDS011;18022;45.492;11.548;2023-11-21T01:31:40;38.47;;;24.73;;
31390;SDS011;18022;45.492;11.548;2023-11-21T01:34:06;35.28;;;23.83;;
31390;SDS011;18022;45.492;11.548;2023-11-21T01:36:32;33.75;;;24.00;;
31390;SDS011;18022;45.492;11.548;2023-11-21T01:38:58;36.97;;;24.13;;
31390;SDS011;18022;45.492;11.548;2023-11-21T01:41:25;30.55;;;21.80;;
31390;SDS011;18022;45.492;11.548;2023-11-21T01:43:54;33.70;;;23.48;;
31390;SDS011;18022;45.492;11.548;2023-11-21T01:46:20;36.92;;;22.25;;
31390;SDS011;18022;45.492;11.548;2023-11-21T01:48:48;31.75;;;21.83;;
31390;SDS011;18022;45.492;11.548;2023-11-21T01:51:14;32.78;;;24.15;;
31390;SDS011;18022;45.492;11.548;2023-11-21T01:53:40;34.47;;;22.60;;
31390;SDS011;18022;45.492;11.548;2023-11-21T01:56:06;31.33;;;23.15;;
31390;SDS011;18022;45.492;11.548;2023-11-21T01:58:33;33.95;;;22.70;;
31390;SDS011;18022;45.492;11.548;2023-11-21T02:00:59;30.80;;;22.98;;
31390;SDS011;18022;45.492;11.548;2023-11-21T02:03:25;33.00;;;22.95;;
31390;SDS011;18022;45.492;11.548;2023-11-21T02:05:52;30.42;;;22.00;;
31390;SDS011;18022;45.492;11.548;2023-11-21T02:08:18;31.00;;;22.23;;
31390;SDS011;18022;45.492;11.548;2023-11-21T02:10:44;31.88;;;23.75;;
31390;SDS011;18022;45.492;11.548;2023-11-21T02:13:10;36.72;;;23.70;;
31390;SDS011;18022;45.492;11.548;2023-11-21T02:15:37;34.03;;;22.98;;
31390;SDS011;18022;45.492;11.548;2023-11-21T02:18:03;30.33;;;22.63;;
31390;SDS011;18022;45.492;11.548;2023-11-21T02:20:31;29.98;;;22.17;;
31390;SDS011;18022;45.492;11.548;2023-11-21T02:22:59;33.55;;;22.92;;
31390;SDS011;18022;45.492;11.548;2023-11-21T02:25:26;31.35;;;22.83;;
31390;SDS011;18022;45.492;11.548;2023-11-21T02:27:54;33.92;;;23.30;;
31390;SDS011;18022;45.492;11.548;2023-11-21T02:30:20;30.95;;;22.20;;
31390;SDS011;18022;45.492;11.548;2023-11-21T02:32:47;30.95;;;22.98;;
31390;SDS011;18022;45.492;11.548;2023-11-21T02:35:14;31.42;;;22.23;;
31390;SDS011;18022;45.492;11.548;2023-11-21T02:37:41;30.00;;;21.93;;
31390;SDS011;18022;45.492;11.548;2023-11-21T02:40:10;31.23;;;22.20;;
31390;SDS011;18022;45.492;11.548;2023-11-21T02:42:37;31.95;;;21.70;;
31390;SDS011;18022;45.492;11.548;2023-11-21T02:45:05;30.17;;;20.83;;
31390;SDS011;18022;45.492;11.548;2023-11-21T02:47:31;29.15;;;21.52;;
31390;SDS011;18022;45.492;11.548;2023-11-21T02:49:58;29.58;;;21.25;;
31390;SDS011;18022;45.492;11.548;2023-11-21T02:52:24;32.33;;;22.83;;
31390;SDS011;18022;45.492;11.548;2023-11-21T02:54:50;32.25;;;21.90;;
31390;SDS011;18022;45.492;11.548;2023-11-21T02:57:16;32.40;;;22.67;;
31390;SDS011;18022;45.492;11.548;2023-11-21T02:59:42;30.67;;;21.83;;
31390;SDS011;18022;45.492;11.548;2023-11-21T03:02:07;36.72;;;22.20;;
31390;SDS011;18022;45.492;11.548;2023-11-21T03:04:33;31.00;;;21.45;;
31390;SDS011;18022;45.492;11.548;2023-11-21T03:06:59;30.30;;;21.50;;
31390;SDS011;18022;45.492;11.548;2023-11-21T03:09:25;30.02;;;22.15;;
31390;SDS011;18022;45.492;11.548;2023-11-21T03:11:52;32.53;;;22.20;;
31390;SDS011;18022;45.492;11.548;2023-11-21T03:14:18;32.13;;;22.15;;
31390;SDS011;18022;45.492;11.548;2023-11-21T03:16:44;30.77;;;22.63;;
31390;SDS011;18022;45.492;11.548;2023-11-21T03:19:10;31.83;;;22.30;;
31390;SDS011;18022;45.492;11.548;2023-11-21T03:21:36;31.45;;;22.00;;
31390;SDS011;18022;45.492;11.548;2023-11-21T03:24:02;29.85;;;21.45;;
31390;SDS011;18022;45.492;11.548;2023-11-21T03:26:28;29.27;;;21.20;;
31390;SDS011;18022;45.492;11.548;2023-11-21T03:28:54;30.95;;;22.42;;
31390;SDS011;18022;45.492;11.548;2023-11-21T03:31:20;35.30;;;23.33;;
31390;SDS011;18022;45.492;11.548;2023-11-21T03:33:46;36.20;;;23.38;;
31390;SDS011;18022;45.492;11.548;2023-11-21T03:36:12;32.28;;;24.23;;
31390;SDS011;18022;45.492;11.548;2023-11-21T03:38:40;34.28;;;22.92;;
31390;SDS011;18022;45.492;11.548;2023-11-21T03:41:06;30.92;;;22.83;;
31390;SDS011;18022;45.492;11.548;2023-11-21T03:43:35;28.70;;;22.10;;
31390;SDS011;18022;45.492;11.548;2023-11-21T03:46:01;34.17;;;23.50;;
31390;SDS011;18022;45.492;11.548;2023-11-21T03:48:27;28.80;;;22.23;;
31390;SDS011;18022;45.492;11.548;2023-11-21T03:50:53;33.70;;;23.10;;
31390;SDS011;18022;45.492;11.548;2023-11-21T03:53:19;30.23;;;21.40;;
31390;SDS011;18022;45.492;11.548;2023-11-21T03:55:44;32.03;;;21.08;;
31390;SDS011;18022;45.492;11.548;2023-11-21T03:58:10;29.48;;;21.45;;
31390;SDS011;18022;45.492;11.548;2023-11-21T04:00:36;29.73;;;22.08;;
31390;SDS011;18022;45.492;11.548;2023-11-21T04:03:02;27.85;;;20.77;;
31390;SDS011;18022;45.492;11.548;2023-11-21T04:05:28;29.70;;;21.75;;
31390;SDS011;18022;45.492;11.548;2023-11-21T04:07:54;29.80;;;22.52;;
31390;SDS011;18022;45.492;11.548;2023-11-21T04:10:19;31.42;;;23.55;;
31390;SDS011;18022;45.492;11.548;2023-11-21T04:12:45;30.48;;;22.75;;
31390;SDS011;18022;45.492;11.548;2023-11-21T04:15:11;32.75;;;23.88;;
31390;SDS011;18022;45.492;11.548;2023-11-21T04:17:40;28.23;;;22.10;;
31390;SDS011;18022;45.492;11.548;2023-11-21T04:20:07;32.40;;;23.17;;
31390;SDS011;18022;45.492;11.548;2023-11-21T04:22:40;30.20;;;22.65;;
31390;SDS011;18022;45.492;11.548;2023-11-21T04:25:11;31.80;;;21.90;;
31390;SDS011;18022;45.492;11.548;2023-11-21T04:27:39;28.15;;;20.77;;
31390;SDS011;18022;45.492;11.548;2023-11-21T04:30:06;28.55;;;20.83;;
31390;SDS011;18022;45.492;11.548;2023-11-21T04:32:33;28.90;;;21.10;;
31390;SDS011;18022;45.492;11.548;2023-11-21T04:34:58;28.88;;;21.50;;
31390;SDS011;18022;45.492;11.548;2023-11-21T04:37:24;29.30;;;22.10;;
31390;SDS011;18022;45.492;11.548;2023-11-21T04:39:50;31.52;;;22.88;;
31390;SDS011;18022;45.492;11.548;2023-11-21T04:42:16;33.90;;;23.27;;
31390;SDS011;18022;45.492;11.548;2023-11-21T04:44:42;31.95;;;22.25;;
31390;SDS011;18022;45.492;11.548;2023-11-21T04:47:09;29.63;;;21.85;;
31390;SDS011;18022;45.492;11.548;2023-11-21T04:49:35;28.48;;;20.95;;
31390;SDS011;18022;45.492;11.548;2023-11-21T04:52:00;29.60;;;22.08;;
31390;SDS011;18022;45.492;11.548;2023-11-21T04:54:26;31.80;;;22.83;;
31390;SDS011;18022;45.492;11.548;2023-11-21T04:56:52;31.58;;;23.05;;
31390;SDS011;18022;45.492;11.548;2023-11-21T04:59:18;29.73;;;20.95;;
31390;SDS011;18022;45.492;11.548;2023-11-21T05:01:44;28.98;;;21.35;;
31390;SDS011;18022;45.492;11.548;2023-11-21T05:04:09;27.90;;;21.02;;
31390;SDS011;18022;45.492;11.548;2023-11-21T05:06:35;28.75;;;21.05;;
31390;SDS011;18022;45.492;11.548;2023-11-21T05:09:00;28.05;;;20.63;;
31390;SDS011;18022;45.492;11.548;2023-11-21T05:11:27;28.73;;;22.00;;
31390;SDS011;18022;45.492;11.548;2023-11-21T05:13:53;31.00;;;22.10;;
31390;SDS011;18022;45.492;11.548;2023-11-21T05:16:20;38.22;;;21.80;;
31390;SDS011;18022;45.492;11.548;2023-11-21T05:18:47;28.98;;;20.77;;
31390;SDS011;18022;45.492;11.548;2023-11-21T05:21:13;27.48;;;21.02;;
31390;SDS011;18022;45.492;11.548;2023-11-21T05:23:38;28.35;;;20.30;;
31390;SDS011;18022;45.492;11.548;2023-11-21T05:26:04;27.85;;;19.52;;
31390;SDS011;18022;45.492;11.548;2023-11-21T05:28:30;26.40;;;19.73;;
31390;SDS011;18022;45.492;11.548;2023-11-21T05:30:56;28.42;;;19.83;;
31390;SDS011;18022;45.492;11.548;2023-11-21T05:33:21;30.88;;;20.20;;
31390;SDS011;18022;45.492;11.548;2023-11-21T05:35:47;29.13;;;21.08;;
31390;SDS011;18022;45.492;11.548;2023-11-21T05:38:13;28.60;;;21.75;;
31390;SDS011;18022;45.492;11.548;2023-11-21T05:40:39;26.52;;;20.33;;
31390;SDS011;18022;45.492;11.548;2023-11-21T05:43:06;27.63;;;18.88;;
31390;SDS011;18022;45.492;11.548;2023-11-21T05:45:32;26.73;;;19.70;;
31390;SDS011;18022;45.492;11.548;2023-11-21T05:47:58;28.88;;;20.85;;
31390;SDS011;18022;45.492;11.548;2023-11-21T05:50:24;30.45;;;19.42;;
31390;SDS011;18022;45.492;11.548;2023-11-21T05:52:50;29.45;;;21.00;;
31390;SDS011;18022;45.492;11.548;2023-11-21T05:55:16;26.27;;;20.67;;
31390;SDS011;18022;45.492;11.548;2023-11-21T05:57:42;29.70;;;21.65;;
31390;SDS011;18022;45.492;11.548;2023-11-21T06:00:09;28.23;;;21.17;;
31390;SDS011;18022;45.492;11.548;2023-11-21T06:02:40;30.60;;;21.35;;
31390;SDS011;18022;45.492;11.548;2023-11-21T06:05:07;29.02;;;20.98;;
31390;SDS011;18022;45.492;11.548;2023-11-21T06:07:33;26.10;;;18.42;;
31390;SDS011;18022;45.492;11.548;2023-11-21T06:10:00;27.73;;;20.75;;
31390;SDS011;18022;45.492;11.548;2023-11-21T06:12:39;26.65;;;20.15;;
31390;SDS011;18022;45.492;11.548;2023-11-21T06:15:08;27.33;;;20.08;;
31390;SDS011;18022;45.492;11.548;2023-11-21T06:17:35;30.30;;;22.50;;
31390;SDS011;18022;45.492;11.548;2023-11-21T06:20:04;30.05;;;22.35;;
31390;SDS011;18022;45.492;11.548;2023-11-21T06:22:34;29.67;;;21.15;;
31390;SDS011;18022;45.492;11.548;2023-11-21T06:25:01;31.85;;;20.98;;
31390;SDS011;18022;45.492;11.548;2023-11-21T06:29:56;32.67;;;22.83;;
31390;SDS011;18022;45.492;11.548;2023-11-21T06:32:21;28.80;;;22.58;;
31390;SDS011;18022;45.492;11.548;2023-11-21T06:34:47;38.28;;;25.90;;
31390;SDS011;18022;45.492;11.548;2023-11-21T06:37:14;38.00;;;25.98;;
31390;SDS011;18022;45.492;11.548;2023-11-21T06:39:41;36.65;;;24.45;;
31390;SDS011;18022;45.492;11.548;2023-11-21T06:42:07;32.60;;;23.73;;
31390;SDS011;18022;45.492;11.548;2023-11-21T06:44:33;41.80;;;26.63;;
31390;SDS011;18022;45.492;11.548;2023-11-21T06:47:00;38.38;;;26.17;;
31390;SDS011;18022;45.492;11.548;2023-11-21T06:49:26;35.20;;;25.45;;
31390;SDS011;18022;45.492;11.548;2023-11-21T06:51:51;40.53;;;26.58;;
31390;SDS011;18022;45.492;11.548;2023-11-21T06:54:19;47.47;;;30.38;;
31390;SDS011;18022;45.492;11.548;2023-11-21T06:56:46;42.90;;;27.02;;
31390;SDS011;18022;45.492;11.548;2023-11-21T06:59:12;44.75;;;29.17;;
31390;SDS011;18022;45.492;11.548;2023-11-21T07:01:38;53.20;;;34.10;;
31390;SDS011;18022;45.492;11.548;2023-11-21T07:06:32;41.60;;;28.52;;
31390;SDS011;18022;45.492;11.548;2023-11-21T07:08:58;42.00;;;27.65;;
31390;SDS011;18022;45.492;11.548;2023-11-21T07:11:24;45.75;;;28.73;;
31390;SDS011;18022;45.492;11.548;2023-11-21T07:13:50;43.33;;;29.75;;
31390;SDS011;18022;45.492;11.548;2023-11-21T07:16:17;40.92;;;29.05;;
31390;SDS011;18022;45.492;11.548;2023-11-21T07:18:43;42.88;;;30.02;;
31390;SDS011;18022;45.492;11.548;2023-11-21T07:21:10;41.38;;;27.58;;
31390;SDS011;18022;45.492;11.548;2023-11-21T07:23:37;38.10;;;26.65;;
31390;SDS011;18022;45.492;11.548;2023-11-21T07:26:03;32.58;;;22.25;;
31390;SDS011;18022;45.492;11.548;2023-11-21T07:28:34;25.90;;;20.90;;
31390;SDS011;18022;45.492;11.548;2023-11-21T07:31:00;30.67;;;22.67;;
31390;SDS011;18022;45.492;11.548;2023-11-21T07:33:26;36.70;;;23.08;;
31390;SDS011;18022;45.492;11.548;2023-11-21T07:35:52;37.78;;;23.45;;
31390;SDS011;18022;45.492;11.548;2023-11-21T07:38:18;35.65;;;23.55;;
31390;SDS011;18022;45.492;11.548;2023-11-21T07:40:44;34.65;;;23.45;;
31390;SDS011;18022;45.492;11.548;2023-11-21T07:43:09;31.05;;;21.30;;
31390;SDS011;18022;45.492;11.548;2023-11-21T07:45:35;32.20;;;20.98;;
31390;SDS011;18022;45.492;11.548;2023-11-21T07:48:01;30.13;;;21.75;;
31390;SDS011;18022;45.492;11.548;2023-11-21T07:50:28;24.80;;;16.90;;
31390;SDS011;18022;45.492;11.548;2023-11-21T07:52:54;31.83;;;23.38;;
31390;SDS011;18022;45.492;11.548;2023-11-21T07:55:20;31.75;;;23.23;;
31390;SDS011;18022;45.492;11.548;2023-11-21T07:57:46;33.55;;;22.73;;
31390;SDS011;18022;45.492;11.548;2023-11-21T08:00:12;29.63;;;22.85;;
31390;SDS011;18022;45.492;11.548;2023-11-21T08:02:40;37.30;;;24.67;;
31390;SDS011;18022;45.492;11.548;2023-11-21T08:05:11;49.72;;;37.00;;
31390;SDS011;18022;45.492;11.548;2023-11-21T08:07:37;44.58;;;31.83;;
31390;SDS011;18022;45.492;11.548;2023-11-21T08:10:03;42.95;;;29.58;;
31390;SDS011;18022;45.492;11.548;2023-11-21T08:12:35;43.50;;;29.45;;
31390;SDS011;18022;45.492;11.548;2023-11-21T08:15:01;48.20;;;34.17;;
31390;SDS011;18022;45.492;11.548;2023-11-21T08:17:28;41.80;;;29.60;;
31390;SDS011;18022;45.492;11.548;2023-11-21T08:19:54;41.08;;;28.23;;
31390;SDS011;18022;45.492;11.548;2023-11-21T08:22:20;37.33;;;26.58;;
31390;SDS011;18022;45.492;11.548;2023-11-21T08:24:46;35.38;;;25.88;;
31390;SDS011;18022;45.492;11.548;2023-11-21T08:27:12;38.30;;;26.67;;
31390;SDS011;18022;45.492;11.548;2023-11-21T08:29:41;35.13;;;26.35;;
31390;SDS011;18022;45.492;11.548;2023-11-21T08:32:07;33.58;;;25.00;;
31390;SDS011;18022;45.492;11.548;2023-11-21T08:34:33;35.42;;;24.35;;
31390;SDS011;18022;45.492;11.548;2023-11-21T08:36:58;37.08;;;25.40;;
31390;SDS011;18022;45.492;11.548;2023-11-21T08:39:24;33.28;;;24.95;;
31390;SDS011;18022;45.492;11.548;2023-11-21T08:41:50;37.75;;;25.77;;
31390;SDS011;18022;45.492;11.548;2023-11-21T08:44:16;36.13;;;24.95;;
31390;SDS011;18022;45.492;11.548;2023-11-21T08:46:43;37.80;;;25.10;;
31390;SDS011;18022;45.492;11.548;2023-11-21T08:49:11;37.05;;;26.30;;
31390;SDS011;18022;45.492;11.548;2023-11-21T08:51:37;35.47;;;25.95;;
31390;SDS011;18022;45.492;11.548;2023-11-21T08:54:03;37.22;;;26.98;;
31390;SDS011;18022;45.492;11.548;2023-11-21T08:56:32;35.67;;;25.38;;
31390;SDS011;18022;45.492;11.548;2023-11-21T08:58:59;34.40;;;24.73;;
31390;SDS011;18022;45.492;11.548;2023-11-21T09:01:27;34.67;;;26.67;;
31390;SDS011;18022;45.492;11.548;2023-11-21T09:03:58;35.50;;;25.77;;
31390;SDS011;18022;45.492;11.548;2023-11-21T09:06:24;36.50;;;26.50;;
31390;SDS011;18022;45.492;11.548;2023-11-21T09:08:50;38.10;;;27.13;;
31390;SDS011;18022;45.492;11.548;2023-11-21T09:11:16;34.97;;;25.40;;
31390;SDS011;18022;45.492;11.548;2023-11-21T09:13:42;38.13;;;25.60;;
31390;SDS011;18022;45.492;11.548;2023-11-21T09:16:08;37.63;;;26.25;;
31390;SDS011;18022;45.492;11.548;2023-11-21T09:18:34;43.83;;;26.98;;
31390;SDS011;18022;45.492;11.548;2023-11-21T09:20:59;35.30;;;26.30;;
31390;SDS011;18022;45.492;11.548;2023-11-21T09:23:25;40.72;;;27.10;;
31390;SDS011;18022;45.492;11.548;2023-11-21T09:25:51;37.35;;;25.85;;
31390;SDS011;18022;45.492;11.548;2023-11-21T09:28:17;35.70;;;25.40;;
31390;SDS011;18022;45.492;11.548;2023-11-21T09:30:43;38.15;;;24.67;;
31390;SDS011;18022;45.492;11.548;2023-11-21T09:33:09;36.05;;;25.63;;
31390;SDS011;18022;45.492;11.548;2023-11-21T09:35:38;36.05;;;26.33;;
31390;SDS011;18022;45.492;11.548;2023-11-21T09:38:04;35.88;;;24.65;;
31390;SDS011;18022;45.492;11.548;2023-11-21T09:40:36;34.72;;;24.80;;
31390;SDS011;18022;45.492;11.548;2023-11-21T09:43:05;38.50;;;25.35;;
31390;SDS011;18022;45.492;11.548;2023-11-21T09:45:39;35.20;;;25.13;;
31390;SDS011;18022;45.492;11.548;2023-11-21T09:48:05;38.15;;;25.00;;
31390;SDS011;18022;45.492;11.548;2023-11-21T09:50:33;38.80;;;24.80;;
31390;SDS011;18022;45.492;11.548;2023-11-21T09:55:27;37.60;;;25.88;;
31390;SDS011;18022;45.492;11.548;2023-11-21T09:58:00;40.75;;;25.70;;
31390;SDS011;18022;45.492;11.548;2023-11-21T10:00:28;38.70;;;27.35;;
31390;SDS011;18022;45.492;11.548;2023-11-21T10:02:57;40.70;;;27.23;;
31390;SDS011;18022;45.492;11.548;2023-11-21T10:05:23;35.67;;;25.63;;
31390;SDS011;18022;45.492;11.548;2023-11-21T10:07:49;37.65;;;26.25;;
31390;SDS011;18022;45.492;11.548;2023-11-21T10:10:17;36.08;;;26.65;;
31390;SDS011;18022;45.492;11.548;2023-11-21T10:12:46;36.20;;;26.65;;
31390;SDS011;18022;45.492;11.548;2023-11-21T10:15:18;37.63;;;25.98;;
31390;SDS011;18022;45.492;11.548;2023-11-21T10:17:46;36.35;;;25.70;;
31390;SDS011;18022;45.492;11.548;2023-11-21T10:20:14;39.85;;;27.60;;
31390;SDS011;18022;45.492;11.548;2023-11-21T10:22:41;41.35;;;28.15;;
31390;SDS011;18022;45.492;11.548;2023-11-21T10:25:08;36.38;;;27.33;;
31390;SDS011;18022;45.492;11.548;2023-11-21T10:27:35;40.90;;;26.77;;
31390;SDS011;18022;45.492;11.548;2023-11-21T10:30:04;38.45;;;27.48;;
31390;SDS011;18022;45.492;11.548;2023-11-21T10:32:31;47.72;;;29.00;;
31390;SDS011;18022;45.492;11.548;2023-11-21T10:34:58;38.25;;;27.52;;
31390;SDS011;18022;45.492;11.548;2023-11-21T10:37:32;40.17;;;27.67;;
31390;SDS011;18022;45.492;11.548;2023-11-21T10:40:00;37.30;;;26.65;;
31390;SDS011;18022;45.492;11.548;2023-11-21T10:42:27;38.75;;;26.73;;
31390;SDS011;18022;45.492;11.548;2023-11-21T10:44:53;34.15;;;25.40;;
31390;SDS011;18022;45.492;11.548;2023-11-21T10:47:19;36.40;;;26.93;;
31390;SDS011;18022;45.492;11.548;2023-11-21T10:49:50;35.80;;;25.17;;
31390;SDS011;18022;45.492;11.548;2023-11-21T10:52:18;38.63;;;26.63;;
31390;SDS011;18022;45.492;11.548;2023-11-21T10:54:45;44.10;;;27.70;;
31390;SDS011;18022;45.492;11.548;2023-11-21T10:57:12;34.42;;;25.15;;
31390;SDS011;18022;45.492;11.548;2023-11-21T10:59:42;37.78;;;25.25;;
31390;SDS011;18022;45.492;11.548;2023-11-21T11:02:22;33.75;;;24.98;;
31390;SDS011;18022;45.492;11.548;2023-11-21T11:04:57;33.40;;;22.08;;
31390;SDS011;18022;45.492;11.548;2023-11-21T11:07:26;32.42;;;22.40;;
31390;SDS011;18022;45.492;11.548;2023-11-21T11:09:56;37.55;;;24.45;;
31390;SDS011;18022;45.492;11.548;2023-11-21T11:12:23;36.10;;;25.65;;
31390;SDS011;18022;45.492;11.548;2023-11-21T11:14:49;41.03;;;28.00;;
31390;SDS011;18022;45.492;11.548;2023-11-21T11:17:18;41.42;;;26.15;;
31390;SDS011;18022;45.492;11.548;2023-11-21T11:19:47;37.20;;;26.60;;
31390;SDS011;18022;45.492;11.548;2023-11-21T11:38:33;29.55;;;21.58;;
31390;SDS011;18022;45.492;11.548;2023-11-21T11:43:28;30.85;;;21.48;;
31390;SDS011;18022;45.492;11.548;2023-11-21T11:45:59;26.55;;;18.17;;
31390;SDS011;18022;45.492;11.548;2023-11-21T11:48:29;27.65;;;18.15;;
31390;SDS011;18022;45.492;11.548;2023-11-21T11:51:04;37.78;;;28.10;;
31390;SDS011;18022;45.492;11.548;2023-11-21T11:53:43;30.58;;;23.80;;
31390;SDS011;18022;45.492;11.548;2023-11-21T11:58:50;32.25;;;20.42;;
31390;SDS011;18022;45.492;11.548;2023-11-21T12:01:20;26.65;;;19.25;;
31390;SDS011;18022;45.492;11.548;2023-11-21T12:06:56;20.85;;;16.40;;
31390;SDS011;18022;45.492;11.548;2023-11-21T12:09:25;21.55;;;15.35;;
31390;SDS011;18022;45.492;11.548;2023-11-21T12:11:52;20.15;;;15.15;;
31390;SDS011;18022;45.492;11.548;2023-11-21T12:14:19;25.50;;;16.33;;
31390;SDS011;18022;45.492;11.548;2023-11-21T12:16:45;19.23;;;15.80;;
31390;SDS011;18022;45.492;11.548;2023-11-21T12:19:11;24.15;;;15.75;;
31390;SDS011;18022;45.492;11.548;2023-11-21T12:21:37;16.73;;;13.77;;
31390;SDS011;18022;45.492;11.548;2023-11-21T12:24:06;19.00;;;14.27;;
31390;SDS011;18022;45.492;11.548;2023-11-21T12:26:34;20.08;;;14.18;;
31390;SDS011;18022;45.492;11.548;2023-11-21T12:29:01;22.92;;;16.40;;
31390;SDS011;18022;45.492;11.548;2023-11-21T12:31:29;24.10;;;16.50;;
31390;SDS011;18022;45.492;11.548;2023-11-21T12:33:55;20.05;;;14.50;;
31390;SDS011;18022;45.492;11.548;2023-11-21T12:36:22;20.30;;;16.38;;
31390;SDS011;18022;45.492;11.548;2023-11-21T12:38:49;23.33;;;17.45;;
31390;SDS011;18022;45.492;11.548;2023-11-21T12:41:15;21.73;;;16.52;;
31390;SDS011;18022;45.492;11.548;2023-11-21T12:43:42;21.88;;;16.38;;
31390;SDS011;18022;45.492;11.548;2023-11-21T12:46:09;24.10;;;17.33;;
31390;SDS011;18022;45.492;11.548;2023-11-21T12:48:39;22.95;;;17.58;;
31390;SDS011;18022;45.492;11.548;2023-11-21T12:51:09;21.98;;;16.80;;
31390;SDS011;18022;45.492;11.548;2023-11-21T12:53:36;19.70;;;15.30;;
31390;SDS011;18022;45.492;11.548;2023-11-21T12:56:12;19.90;;;14.75;;
31390;SDS011;18022;45.492;11.548;2023-11-21T12:58:39;20.83;;;14.20;;
31390;SDS011;18022;45.492;11.548;2023-11-21T13:01:09;20.08;;;14.20;;
31390;SDS011;18022;45.492;11.548;2023-11-21T13:03:39;18.42;;;14.15;;
31390;SDS011;18022;45.492;11.548;2023-11-21T13:06:05;16.95;;;13.27;;
31390;SDS011;18022;45.492;11.548;2023-11-21T13:08:32;19.55;;;14.30;;
31390;SDS011;18022;45.492;11.548;2023-11-21T13:10:59;19.65;;;14.20;;
31390;SDS011;18022;45.492;11.548;2023-11-21T13:13:27;19.67;;;14.50;;
31390;SDS011;18022;45.492;11.548;2023-11-21T13:15:54;22.55;;;15.40;;
31390;SDS011;18022;45.492;11.548;2023-11-21T13:18:21;20.50;;;14.98;;
31390;SDS011;18022;45.492;11.548;2023-11-21T13:20:54;20.30;;;14.48;;
31390;SDS011;18022;45.492;11.548;2023-11-21T13:23:22;25.15;;;15.40;;
31390;SDS011;18022;45.492;11.548;2023-11-21T13:25:48;20.58;;;15.52;;
31390;SDS011;18022;45.492;11.548;2023-11-21T13:28:15;19.88;;;14.60;;
31390;SDS011;18022;45.492;11.548;2023-11-21T13:30:43;20.45;;;14.52;;
31390;SDS011;18022;45.492;11.548;2023-11-21T13:33:09;19.58;;;14.80;;
31390;SDS011;18022;45.492;11.548;2023-11-21T13:35:42;20.55;;;14.07;;
31390;SDS011;18022;45.492;11.548;2023-11-21T13:38:13;19.77;;;14.85;;
31390;SDS011;18022;45.492;11.548;2023-11-21T13:40:42;23.67;;;15.30;;
31390;SDS011;18022;45.492;11.548;2023-11-21T13:43:18;17.33;;;13.85;;
31390;SDS011;18022;45.492;11.548;2023-11-21T13:45:47;20.75;;;14.13;;
31390;SDS011;18022;45.492;11.548;2023-11-21T13:48:17;17.85;;;11.52;;
31390;SDS011;18022;45.492;11.548;2023-11-21T13:50:50;17.15;;;11.35;;
31390;SDS011;18022;45.492;11.548;2023-11-21T13:53:26;15.77;;;10.60;;
31390;SDS011;18022;45.492;11.548;2023-11-21T13:55:52;16.52;;;11.82;;
31390;SDS011;18022;45.492;11.548;2023-11-21T13:58:26;21.50;;;12.65;;
31390;SDS011;18022;45.492;11.548;2023-11-21T14:01:15;17.35;;;12.23;;
31390;SDS011;18022;45.492;11.548;2023-11-21T14:04:00;14.07;;;10.00;;
31390;SDS011;18022;45.492;11.548;2023-11-21T14:06:43;13.70;;;11.02;;
31390;SDS011;18022;45.492;11.548;2023-11-21T14:09:17;19.75;;;12.52;;
31390;SDS011;18022;45.492;11.548;2023-11-21T14:11:54;18.38;;;12.93;;
31390;SDS011;18022;45.492;11.548;2023-11-21T14:14:22;30.75;;;18.27;;
31390;SDS011;18022;45.492;11.548;2023-11-21T14:16:56;26.58;;;16.48;;
31390;SDS011;18022;45.492;11.548;2023-11-21T14:19:23;25.98;;;17.45;;
31390;SDS011;18022;45.492;11.548;2023-11-21T14:21:52;33.13;;;19.73;;
31390;SDS011;18022;45.492;11.548;2023-11-21T14:24:18;29.25;;;17.85;;
31390;SDS011;18022;45.492;11.548;2023-11-21T14:26:44;19.33;;;13.75;;
31390;SDS011;18022;45.492;11.548;2023-11-21T14:29:15;25.50;;;14.40;;
31390;SDS011;18022;45.492;11.548;2023-11-21T14:31:45;19.38;;;13.88;;
31390;SDS011;18022;45.492;11.548;2023-11-21T14:34:11;21.75;;;13.43;;
31390;SDS011;18022;45.492;11.548;2023-11-21T14:36:37;17.42;;;12.80;;
31390;SDS011;18022;45.492;11.548;2023-11-21T14:39:06;20.27;;;12.88;;
31390;SDS011;18022;45.492;11.548;2023-11-21T14:41:34;17.20;;;12.50;;
31390;SDS011;18022;45.492;11.548;2023-11-21T14:44:02;15.98;;;12.27;;